sensor_id;sensor_type;location;lat;lon;timestamp;P1;durP1;ratioP1;P2;durP2;ratioP2
76761;SDS011;65705;51.032;13.790;2023-01-09T00:00:24;20.13;;;10.52;;
76761;SDS011;65705;51.032;13.790;2023-01-09T00:02:51;18.17;;;9.57;;
76761;SDS011;65705;51.032;13.790;2023-01-09T00:05:17;18.63;;;9.55;;
76761;SDS011;65705;51.032;13.790;2023-01-09T00:07:43;23.27;;;10.52;;
76761;SDS011;65705;51.032;13.790;2023-01-09T00:10:13;21.38;;;11.23;;
76761;SDS011;65705;51.032;13.790;2023-01-09T00:12:39;18.88;;;10.52;;
76761;SDS011;65705;51.032;13.790;2023-01-09T00:15:06;20.40;;;10.45;;
76761;SDS011;65705;51.032;13.790;2023-01-09T00:17:32;20.52;;;10.13;;
76761;SDS011;65705;51.032;13.790;2023-01-09T00:20:00;20.50;;;10.63;;
76761;SDS011;65705;51.032;13.790;2023-01-09T00:22:26;21.70;;;10.77;;
76761;SDS011;65705;51.032;13.790;2023-01-09T00:24:52;19.10;;;10.18;;
76761;SDS011;65705;51.032;13.790;2023-01-09T00:27:18;20.45;;;10.50;;
76761;SDS011;65705;51.032;13.790;2023-01-09T00:29:43;21.52;;;10.63;;
76761;SDS011;65705;51.032;13.790;2023-01-09T00:32:10;21.30;;;11.02;;
76761;SDS011;65705;51.032;13.790;2023-01-09T00:34:36;19.63;;;10.27;;
76761;SDS011;65705;51.032;13.790;2023-01-09T00:37:03;21.10;;;10.45;;
76761;SDS011;65705;51.032;13.790;2023-01-09T00:39:39;22.63;;;10.77;;
76761;SDS011;65705;51.032;13.790;2023-01-09T00:42:05;23.02;;;11.13;;
76761;SDS011;65705;51.032;13.790;2023-01-09T00:44:35;25.20;;;11.27;;
76761;SDS011;65705;51.032;13.790;2023-01-09T00:47:09;20.92;;;10.90;;
76761;SDS011;65705;51.032;13.790;2023-01-09T00:49:42;25.15;;;11.35;;
76761;SDS011;65705;51.032;13.790;2023-01-09T00:52:10;21.63;;;10.77;;
76761;SDS011;65705;51.032;13.790;2023-01-09T00:54:38;20.33;;;10.85;;
76761;SDS011;65705;51.032;13.790;2023-01-09T00:57:05;23.88;;;10.85;;
76761;SDS011;65705;51.032;13.790;2023-01-09T00:59:31;23.77;;;11.07;;
76761;SDS011;65705;51.032;13.790;2023-01-09T01:01:57;20.60;;;10.73;;
76761;SDS011;65705;51.032;13.790;2023-01-09T01:04:23;23.67;;;9.73;;
76761;SDS011;65705;51.032;13.790;2023-01-09T01:07:07;21.88;;;10.48;;
76761;SDS011;65705;51.032;13.790;2023-01-09T01:09:51;20.50;;;10.75;;
76761;SDS011;65705;51.032;13.790;2023-01-09T01:12:17;21.42;;;9.90;;
76761;SDS011;65705;51.032;13.790;2023-01-09T01:14:43;21.40;;;10.80;;
76761;SDS011;65705;51.032;13.790;2023-01-09T01:17:12;25.67;;;11.38;;
76761;SDS011;65705;51.032;13.790;2023-01-09T01:19:38;19.85;;;10.75;;
76761;SDS011;65705;51.032;13.790;2023-01-09T01:22:06;20.48;;;10.45;;
76761;SDS011;65705;51.032;13.790;2023-01-09T01:24:32;24.63;;;12.35;;
76761;SDS011;65705;51.032;13.790;2023-01-09T01:26:58;22.38;;;10.75;;
76761;SDS011;65705;51.032;13.790;2023-01-09T01:29:23;21.73;;;9.98;;
76761;SDS011;65705;51.032;13.790;2023-01-09T01:31:50;21.38;;;10.25;;
76761;SDS011;65705;51.032;13.790;2023-01-09T01:34:16;22.05;;;10.20;;
76761;SDS011;65705;51.032;13.790;2023-01-09T01:36:42;21.42;;;9.77;;
76761;SDS011;65705;51.032;13.790;2023-01-09T01:39:07;21.58;;;10.73;;
76761;SDS011;65705;51.032;13.790;2023-01-09T01:41:33;26.25;;;11.27;;
76761;SDS011;65705;51.032;13.790;2023-01-09T01:44:53;19.35;;;10.63;;
76761;SDS011;65705;51.032;13.790;2023-01-09T01:47:09;19.10;;;9.65;;
76761;SDS011;65705;51.032;13.790;2023-01-09T01:49:35;20.52;;;9.98;;
76761;SDS011;65705;51.032;13.790;2023-01-09T01:52:01;20.80;;;9.63;;
76761;SDS011;65705;51.032;13.790;2023-01-09T01:54:27;20.25;;;10.00;;
76761;SDS011;65705;51.032;13.790;2023-01-09T01:57:15;18.38;;;9.77;;
76761;SDS011;65705;51.032;13.790;2023-01-09T01:59:43;19.75;;;10.13;;
76761;SDS011;65705;51.032;13.790;2023-01-09T02:02:19;22.75;;;10.45;;
76761;SDS011;65705;51.032;13.790;2023-01-09T02:04:48;18.85;;;10.68;;
76761;SDS011;65705;51.032;13.790;2023-01-09T02:07:17;20.40;;;10.00;;
76761;SDS011;65705;51.032;13.790;2023-01-09T02:09:43;21.10;;;10.40;;
76761;SDS011;65705;51.032;13.790;2023-01-09T02:12:16;20.23;;;9.90;;
76761;SDS011;65705;51.032;13.790;2023-01-09T02:14:59;20.48;;;9.55;;
76761;SDS011;65705;51.032;13.790;2023-01-09T02:17:57;20.58;;;10.10;;
76761;SDS011;65705;51.032;13.790;2023-01-09T02:20:37;23.48;;;10.27;;
76761;SDS011;65705;51.032;13.790;2023-01-09T02:29:08;20.05;;;9.93;;
76761;SDS011;65705;51.032;13.790;2023-01-09T02:34:35;18.52;;;9.10;;
76761;SDS011;65705;51.032;13.790;2023-01-09T02:40:24;21.48;;;10.88;;
76761;SDS011;65705;51.032;13.790;2023-01-09T02:42:51;20.05;;;9.20;;
76761;SDS011;65705;51.032;13.790;2023-01-09T02:45:20;18.67;;;9.50;;
76761;SDS011;65705;51.032;13.790;2023-01-09T02:47:46;18.48;;;10.70;;
76761;SDS011;65705;51.032;13.790;2023-01-09T02:50:14;19.75;;;9.75;;
76761;SDS011;65705;51.032;13.790;2023-01-09T02:53:02;19.73;;;10.02;;
76761;SDS011;65705;51.032;13.790;2023-01-09T03:01:09;23.63;;;10.75;;
76761;SDS011;65705;51.032;13.790;2023-01-09T03:06:28;21.27;;;11.23;;
76761;SDS011;65705;51.032;13.790;2023-01-09T03:08:56;20.77;;;10.27;;
76761;SDS011;65705;51.032;13.790;2023-01-09T03:11:26;21.20;;;10.55;;
76761;SDS011;65705;51.032;13.790;2023-01-09T03:13:56;18.05;;;9.32;;
76761;SDS011;65705;51.032;13.790;2023-01-09T03:16:30;18.58;;;9.23;;
76761;SDS011;65705;51.032;13.790;2023-01-09T03:18:59;19.00;;;9.93;;
76761;SDS011;65705;51.032;13.790;2023-01-09T03:21:28;23.50;;;10.50;;
76761;SDS011;65705;51.032;13.790;2023-01-09T03:23:56;21.70;;;10.60;;
76761;SDS011;65705;51.032;13.790;2023-01-09T03:26:24;22.75;;;10.70;;
76761;SDS011;65705;51.032;13.790;2023-01-09T03:28:50;22.90;;;11.07;;
76761;SDS011;65705;51.032;13.790;2023-01-09T03:31:17;22.40;;;10.32;;
76761;SDS011;65705;51.032;13.790;2023-01-09T03:33:42;21.00;;;10.65;;
76761;SDS011;65705;51.032;13.790;2023-01-09T03:36:09;23.38;;;11.77;;
76761;SDS011;65705;51.032;13.790;2023-01-09T03:38:35;24.75;;;11.20;;
76761;SDS011;65705;51.032;13.790;2023-01-09T03:41:01;21.88;;;10.82;;
76761;SDS011;65705;51.032;13.790;2023-01-09T03:43:27;23.77;;;11.38;;
76761;SDS011;65705;51.032;13.790;2023-01-09T03:45:54;22.50;;;11.50;;
76761;SDS011;65705;51.032;13.790;2023-01-09T03:48:19;19.77;;;10.85;;
76761;SDS011;65705;51.032;13.790;2023-01-09T03:50:49;21.48;;;11.20;;
76761;SDS011;65705;51.032;13.790;2023-01-09T03:53:15;18.75;;;10.38;;
76761;SDS011;65705;51.032;13.790;2023-01-09T03:55:45;23.75;;;11.15;;
76761;SDS011;65705;51.032;13.790;2023-01-09T03:58:24;21.73;;;10.63;;
76761;SDS011;65705;51.032;13.790;2023-01-09T04:00:51;24.65;;;11.82;;
76761;SDS011;65705;51.032;13.790;2023-01-09T04:03:31;22.38;;;11.48;;
76761;SDS011;65705;51.032;13.790;2023-01-09T04:05:56;23.17;;;11.10;;
76761;SDS011;65705;51.032;13.790;2023-01-09T04:08:22;21.80;;;11.23;;
76761;SDS011;65705;51.032;13.790;2023-01-09T04:10:48;21.75;;;11.13;;
76761;SDS011;65705;51.032;13.790;2023-01-09T04:13:15;23.92;;;11.45;;
76761;SDS011;65705;51.032;13.790;2023-01-09T04:15:40;20.52;;;10.63;;
76761;SDS011;65705;51.032;13.790;2023-01-09T04:18:06;20.75;;;10.93;;
76761;SDS011;65705;51.032;13.790;2023-01-09T04:20:32;20.55;;;10.52;;
76761;SDS011;65705;51.032;13.790;2023-01-09T04:22:58;21.95;;;10.27;;
76761;SDS011;65705;51.032;13.790;2023-01-09T04:25:25;21.30;;;10.75;;
76761;SDS011;65705;51.032;13.790;2023-01-09T04:27:51;19.08;;;10.18;;
76761;SDS011;65705;51.032;13.790;2023-01-09T04:30:17;22.85;;;11.73;;
76761;SDS011;65705;51.032;13.790;2023-01-09T04:32:43;21.45;;;10.65;;
76761;SDS011;65705;51.032;13.790;2023-01-09T04:35:09;22.35;;;11.02;;
76761;SDS011;65705;51.032;13.790;2023-01-09T04:37:35;20.58;;;10.43;;
76761;SDS011;65705;51.032;13.790;2023-01-09T04:40:02;20.85;;;9.93;;
76761;SDS011;65705;51.032;13.790;2023-01-09T04:42:36;21.92;;;11.38;;
76761;SDS011;65705;51.032;13.790;2023-01-09T04:45:06;22.42;;;10.07;;
76761;SDS011;65705;51.032;13.790;2023-01-09T04:47:34;19.90;;;9.70;;
76761;SDS011;65705;51.032;13.790;2023-01-09T04:50:00;18.73;;;10.00;;
76761;SDS011;65705;51.032;13.790;2023-01-09T04:52:26;20.92;;;10.48;;
76761;SDS011;65705;51.032;13.790;2023-01-09T04:54:52;23.15;;;10.43;;
76761;SDS011;65705;51.032;13.790;2023-01-09T04:57:17;20.63;;;10.02;;
76761;SDS011;65705;51.032;13.790;2023-01-09T04:59:43;21.02;;;9.52;;
76761;SDS011;65705;51.032;13.790;2023-01-09T05:02:09;19.70;;;9.60;;
76761;SDS011;65705;51.032;13.790;2023-01-09T05:04:35;21.75;;;10.57;;
76761;SDS011;65705;51.032;13.790;2023-01-09T05:07:01;20.02;;;10.35;;
76761;SDS011;65705;51.032;13.790;2023-01-09T05:09:27;20.38;;;10.07;;
76761;SDS011;65705;51.032;13.790;2023-01-09T05:11:56;20.35;;;9.05;;
76761;SDS011;65705;51.032;13.790;2023-01-09T05:14:21;18.05;;;10.02;;
76761;SDS011;65705;51.032;13.790;2023-01-09T05:16:47;17.98;;;9.60;;
76761;SDS011;65705;51.032;13.790;2023-01-09T05:19:41;17.67;;;9.07;;
76761;SDS011;65705;51.032;13.790;2023-01-09T05:22:10;20.38;;;9.60;;
76761;SDS011;65705;51.032;13.790;2023-01-09T05:24:36;20.63;;;10.50;;
76761;SDS011;65705;51.032;13.790;2023-01-09T05:27:11;18.80;;;9.63;;
76761;SDS011;65705;51.032;13.790;2023-01-09T05:29:37;18.98;;;10.07;;
76761;SDS011;65705;51.032;13.790;2023-01-09T05:32:02;18.52;;;8.85;;
76761;SDS011;65705;51.032;13.790;2023-01-09T05:34:48;16.48;;;8.90;;
76761;SDS011;65705;51.032;13.790;2023-01-09T05:37:14;17.20;;;8.70;;
76761;SDS011;65705;51.032;13.790;2023-01-09T05:39:52;18.95;;;8.77;;
76761;SDS011;65705;51.032;13.790;2023-01-09T05:42:17;18.45;;;9.35;;
76761;SDS011;65705;51.032;13.790;2023-01-09T05:44:43;19.10;;;9.05;;
76761;SDS011;65705;51.032;13.790;2023-01-09T05:47:09;19.45;;;9.98;;
76761;SDS011;65705;51.032;13.790;2023-01-09T05:49:35;19.60;;;9.65;;
76761;SDS011;65705;51.032;13.790;2023-01-09T05:52:02;16.15;;;8.48;;
76761;SDS011;65705;51.032;13.790;2023-01-09T05:54:29;17.10;;;8.52;;
76761;SDS011;65705;51.032;13.790;2023-01-09T05:56:55;20.15;;;10.05;;
76761;SDS011;65705;51.032;13.790;2023-01-09T05:59:21;19.42;;;10.05;;
76761;SDS011;65705;51.032;13.790;2023-01-09T06:01:47;18.02;;;8.98;;
76761;SDS011;65705;51.032;13.790;2023-01-09T06:04:13;17.90;;;8.98;;
76761;SDS011;65705;51.032;13.790;2023-01-09T06:06:38;15.95;;;8.50;;
76761;SDS011;65705;51.032;13.790;2023-01-09T06:09:05;17.55;;;8.88;;
76761;SDS011;65705;51.032;13.790;2023-01-09T06:11:31;18.90;;;9.13;;
76761;SDS011;65705;51.032;13.790;2023-01-09T06:14:00;19.58;;;9.25;;
76761;SDS011;65705;51.032;13.790;2023-01-09T06:16:26;18.25;;;9.30;;
76761;SDS011;65705;51.032;13.790;2023-01-09T06:18:52;19.13;;;9.48;;
76761;SDS011;65705;51.032;13.790;2023-01-09T06:23:48;17.52;;;8.80;;
76761;SDS011;65705;51.032;13.790;2023-01-09T06:26:13;18.58;;;9.07;;
76761;SDS011;65705;51.032;13.790;2023-01-09T06:28:39;16.60;;;8.45;;
76761;SDS011;65705;51.032;13.790;2023-01-09T06:31:05;17.83;;;8.38;;
76761;SDS011;65705;51.032;13.790;2023-01-09T06:33:30;14.23;;;8.70;;
76761;SDS011;65705;51.032;13.790;2023-01-09T06:36:05;20.13;;;11.52;;
76761;SDS011;65705;51.032;13.790;2023-01-09T06:38:31;18.58;;;9.38;;
76761;SDS011;65705;51.032;13.790;2023-01-09T06:41:09;17.98;;;8.43;;
76761;SDS011;65705;51.032;13.790;2023-01-09T06:43:35;16.45;;;7.82;;
76761;SDS011;65705;51.032;13.790;2023-01-09T06:46:01;16.33;;;7.47;;
76761;SDS011;65705;51.032;13.790;2023-01-09T06:48:30;13.93;;;7.47;;
76761;SDS011;65705;51.032;13.790;2023-01-09T06:50:56;17.45;;;8.65;;
76761;SDS011;65705;51.032;13.790;2023-01-09T06:53:22;16.60;;;8.25;;
76761;SDS011;65705;51.032;13.790;2023-01-09T06:55:47;17.05;;;8.45;;
76761;SDS011;65705;51.032;13.790;2023-01-09T06:58:13;17.23;;;8.85;;
76761;SDS011;65705;51.032;13.790;2023-01-09T07:00:39;16.30;;;8.25;;
76761;SDS011;65705;51.032;13.790;2023-01-09T07:03:05;15.60;;;8.32;;
76761;SDS011;65705;51.032;13.790;2023-01-09T07:05:32;14.20;;;8.30;;
76761;SDS011;65705;51.032;13.790;2023-01-09T07:08:02;18.38;;;8.77;;
76761;SDS011;65705;51.032;13.790;2023-01-09T07:10:28;16.23;;;8.32;;
76761;SDS011;65705;51.032;13.790;2023-01-09T07:13:03;17.67;;;8.90;;
76761;SDS011;65705;51.032;13.790;2023-01-09T07:15:28;15.98;;;9.00;;
76761;SDS011;65705;51.032;13.790;2023-01-09T07:17:54;17.20;;;8.75;;
76761;SDS011;65705;51.032;13.790;2023-01-09T07:20:20;15.93;;;8.57;;
76761;SDS011;65705;51.032;13.790;2023-01-09T07:22:46;16.70;;;9.30;;
76761;SDS011;65705;51.032;13.790;2023-01-09T07:25:11;15.07;;;8.15;;
76761;SDS011;65705;51.032;13.790;2023-01-09T07:27:37;17.23;;;8.30;;
76761;SDS011;65705;51.032;13.790;2023-01-09T07:30:04;18.25;;;9.25;;
76761;SDS011;65705;51.032;13.790;2023-01-09T07:32:31;16.65;;;8.25;;
76761;SDS011;65705;51.032;13.790;2023-01-09T07:34:57;17.77;;;8.27;;
76761;SDS011;65705;51.032;13.790;2023-01-09T07:37:23;17.48;;;9.27;;
76761;SDS011;65705;51.032;13.790;2023-01-09T07:39:49;21.90;;;9.23;;
76761;SDS011;65705;51.032;13.790;2023-01-09T07:42:15;15.35;;;8.45;;
76761;SDS011;65705;51.032;13.790;2023-01-09T07:44:41;16.98;;;8.77;;
76761;SDS011;65705;51.032;13.790;2023-01-09T07:47:06;18.77;;;9.32;;
76761;SDS011;65705;51.032;13.790;2023-01-09T07:49:32;18.42;;;8.70;;
76761;SDS011;65705;51.032;13.790;2023-01-09T07:51:58;17.38;;;9.00;;
76761;SDS011;65705;51.032;13.790;2023-01-09T07:54:24;17.58;;;9.38;;
76761;SDS011;65705;51.032;13.790;2023-01-09T07:56:49;19.33;;;9.27;;
76761;SDS011;65705;51.032;13.790;2023-01-09T07:59:15;17.85;;;9.65;;
76761;SDS011;65705;51.032;13.790;2023-01-09T08:01:41;18.60;;;9.52;;
76761;SDS011;65705;51.032;13.790;2023-01-09T08:04:06;18.42;;;9.27;;
76761;SDS011;65705;51.032;13.790;2023-01-09T08:06:32;18.58;;;9.52;;
76761;SDS011;65705;51.032;13.790;2023-01-09T08:08:58;16.08;;;9.05;;
76761;SDS011;65705;51.032;13.790;2023-01-09T08:11:24;17.83;;;8.90;;
76761;SDS011;65705;51.032;13.790;2023-01-09T08:13:50;16.38;;;8.90;;
76761;SDS011;65705;51.032;13.790;2023-01-09T08:16:16;18.25;;;9.25;;
76761;SDS011;65705;51.032;13.790;2023-01-09T08:18:42;18.40;;;9.07;;
76761;SDS011;65705;51.032;13.790;2023-01-09T08:21:37;17.77;;;8.45;;
76761;SDS011;65705;51.032;13.790;2023-01-09T08:24:22;19.95;;;9.45;;
76761;SDS011;65705;51.032;13.790;2023-01-09T08:27:07;23.05;;;12.30;;
76761;SDS011;65705;51.032;13.790;2023-01-09T08:29:34;23.50;;;11.05;;
76761;SDS011;65705;51.032;13.790;2023-01-09T08:31:59;20.65;;;10.15;;
76761;SDS011;65705;51.032;13.790;2023-01-09T08:34:26;16.52;;;9.23;;
76761;SDS011;65705;51.032;13.790;2023-01-09T08:36:52;16.88;;;8.68;;
76761;SDS011;65705;51.032;13.790;2023-01-09T08:39:18;18.42;;;8.25;;
76761;SDS011;65705;51.032;13.790;2023-01-09T08:41:44;18.67;;;9.25;;
76761;SDS011;65705;51.032;13.790;2023-01-09T08:44:28;16.15;;;8.32;;
76761;SDS011;65705;51.032;13.790;2023-01-09T08:47:14;16.38;;;8.07;;
76761;SDS011;65705;51.032;13.790;2023-01-09T08:49:42;18.83;;;8.60;;
76761;SDS011;65705;51.032;13.790;2023-01-09T08:52:07;15.13;;;8.15;;
76761;SDS011;65705;51.032;13.790;2023-01-09T08:54:33;15.15;;;8.10;;
76761;SDS011;65705;51.032;13.790;2023-01-09T08:57:03;17.05;;;7.57;;
76761;SDS011;65705;51.032;13.790;2023-01-09T08:59:28;13.50;;;6.90;;
76761;SDS011;65705;51.032;13.790;2023-01-09T09:01:54;12.60;;;6.53;;
76761;SDS011;65705;51.032;13.790;2023-01-09T09:04:22;14.68;;;6.65;;
76761;SDS011;65705;51.032;13.790;2023-01-09T09:06:48;11.95;;;6.40;;
76761;SDS011;65705;51.032;13.790;2023-01-09T09:09:13;14.50;;;6.25;;
76761;SDS011;65705;51.032;13.790;2023-01-09T09:11:39;12.10;;;6.20;;
76761;SDS011;65705;51.032;13.790;2023-01-09T09:14:05;32.88;;;14.73;;
76761;SDS011;65705;51.032;13.790;2023-01-09T09:16:51;30.35;;;14.50;;
76761;SDS011;65705;51.032;13.790;2023-01-09T09:19:17;37.58;;;18.50;;
76761;SDS011;65705;51.032;13.790;2023-01-09T09:21:43;21.23;;;10.05;;
76761;SDS011;65705;51.032;13.790;2023-01-09T09:24:09;12.15;;;6.53;;
76761;SDS011;65705;51.032;13.790;2023-01-09T09:26:34;12.85;;;6.03;;
76761;SDS011;65705;51.032;13.790;2023-01-09T09:29:00;11.88;;;6.30;;
76761;SDS011;65705;51.032;13.790;2023-01-09T09:31:26;11.38;;;5.40;;
76761;SDS011;65705;51.032;13.790;2023-01-09T09:33:51;11.73;;;6.13;;
76761;SDS011;65705;51.032;13.790;2023-01-09T09:36:17;11.82;;;5.80;;
76761;SDS011;65705;51.032;13.790;2023-01-09T09:38:43;11.15;;;4.70;;
76761;SDS011;65705;51.032;13.790;2023-01-09T09:41:18;10.65;;;4.50;;
76761;SDS011;65705;51.032;13.790;2023-01-09T09:47:26;3.58;;;1.50;;
76761;SDS011;65705;51.032;13.790;2023-01-09T09:55:23;2.45;;;1.05;;
76761;SDS011;65705;51.032;13.790;2023-01-09T09:57:54;2.60;;;1.23;;
76761;SDS011;65705;51.032;13.790;2023-01-09T10:00:22;4.38;;;1.80;;
76761;SDS011;65705;51.032;13.790;2023-01-09T10:02:57;3.03;;;1.35;;
76761;SDS011;65705;51.032;13.790;2023-01-09T10:05:35;3.72;;;1.73;;
76761;SDS011;65705;51.032;13.790;2023-01-09T10:08:09;1.85;;;1.10;;
76761;SDS011;65705;51.032;13.790;2023-01-09T10:10:51;5.15;;;2.20;;
76761;SDS011;65705;51.032;13.790;2023-01-09T10:13:19;4.35;;;1.90;;
76761;SDS011;65705;51.032;13.790;2023-01-09T10:16:31;3.15;;;1.42;;
76761;SDS011;65705;51.032;13.790;2023-01-09T10:42:17;2.13;;;0.93;;
76761;SDS011;65705;51.032;13.790;2023-01-09T10:44:50;4.90;;;1.10;;
76761;SDS011;65705;51.032;13.790;2023-01-09T10:47:30;3.72;;;1.48;;
76761;SDS011;65705;51.032;13.790;2023-01-09T10:49:58;2.17;;;1.00;;
76761;SDS011;65705;51.032;13.790;2023-01-09T10:52:29;1.98;;;1.15;;
76761;SDS011;65705;51.032;13.790;2023-01-09T10:55:45;1.98;;;0.82;;
76761;SDS011;65705;51.032;13.790;2023-01-09T10:57:59;1.30;;;0.80;;
76761;SDS011;65705;51.032;13.790;2023-01-09T11:00:26;1.83;;;0.80;;
76761;SDS011;65705;51.032;13.790;2023-01-09T11:02:52;1.08;;;0.60;;
76761;SDS011;65705;51.032;13.790;2023-01-09T11:05:26;2.17;;;0.93;;
76761;SDS011;65705;51.032;13.790;2023-01-09T11:10:55;1.35;;;0.70;;
76761;SDS011;65705;51.032;13.790;2023-01-09T11:13:24;2.28;;;0.80;;
76761;SDS011;65705;51.032;13.790;2023-01-09T11:16:21;1.70;;;1.05;;
76761;SDS011;65705;51.032;13.790;2023-01-09T11:18:54;1.67;;;0.60;;
76761;SDS011;65705;51.032;13.790;2023-01-09T11:21:33;2.42;;;1.00;;
76761;SDS011;65705;51.032;13.790;2023-01-09T11:24:15;2.35;;;1.02;;
76761;SDS011;65705;51.032;13.790;2023-01-09T11:26:52;3.85;;;1.45;;
76761;SDS011;65705;51.032;13.790;2023-01-09T11:29:39;3.95;;;1.00;;
76761;SDS011;65705;51.032;13.790;2023-01-09T11:32:15;1.52;;;0.70;;
76761;SDS011;65705;51.032;13.790;2023-01-09T11:34:48;1.42;;;0.60;;
76761;SDS011;65705;51.032;13.790;2023-01-09T11:37:21;2.13;;;0.70;;
76761;SDS011;65705;51.032;13.790;2023-01-09T11:39:53;3.92;;;0.93;;
76761;SDS011;65705;51.032;13.790;2023-01-09T11:42:25;2.05;;;0.50;;
76761;SDS011;65705;51.032;13.790;2023-01-09T11:45:15;2.22;;;0.80;;
76761;SDS011;65705;51.032;13.790;2023-01-09T11:48:15;1.67;;;0.80;;
76761;SDS011;65705;51.032;13.790;2023-01-09T11:50:41;1.95;;;0.60;;
76761;SDS011;65705;51.032;13.790;2023-01-09T11:53:19;0.43;;;0.30;;
76761;SDS011;65705;51.032;13.790;2023-01-09T11:55:46;1.02;;;0.50;;
76761;SDS011;65705;51.032;13.790;2023-01-09T11:58:17;3.53;;;0.73;;
76761;SDS011;65705;51.032;13.790;2023-01-09T12:09:24;0.75;;;0.40;;
76761;SDS011;65705;51.032;13.790;2023-01-09T12:12:03;1.08;;;0.47;;
76761;SDS011;65705;51.032;13.790;2023-01-09T12:15:01;0.88;;;0.45;;
76761;SDS011;65705;51.032;13.790;2023-01-09T12:23:01;1.52;;;0.45;;
76761;SDS011;65705;51.032;13.790;2023-01-09T12:33:48;3.30;;;0.60;;
76761;SDS011;65705;51.032;13.790;2023-01-09T12:36:26;3.53;;;1.30;;
76761;SDS011;65705;51.032;13.790;2023-01-09T12:39:29;3.28;;;0.75;;
76761;SDS011;65705;51.032;13.790;2023-01-09T12:51:24;1.92;;;0.57;;
76761;SDS011;65705;51.032;13.790;2023-01-09T12:56:50;1.90;;;0.40;;
76761;SDS011;65705;51.032;13.790;2023-01-09T12:59:40;6.22;;;0.90;;
76761;SDS011;65705;51.032;13.790;2023-01-09T13:02:24;1.95;;;0.60;;
76761;SDS011;65705;51.032;13.790;2023-01-09T13:08:14;3.22;;;1.38;;
76761;SDS011;65705;51.032;13.790;2023-01-09T13:13:51;1.65;;;0.50;;
76761;SDS011;65705;51.032;13.790;2023-01-09T13:16:25;3.28;;;0.85;;
76761;SDS011;65705;51.032;13.790;2023-01-09T13:18:57;1.77;;;0.32;;
76761;SDS011;65705;51.032;13.790;2023-01-09T13:21:30;1.08;;;0.50;;
76761;SDS011;65705;51.032;13.790;2023-01-09T13:24:06;1.75;;;0.40;;
76761;SDS011;65705;51.032;13.790;2023-01-09T13:26:49;0.40;;;0.20;;
76761;SDS011;65705;51.032;13.790;2023-01-09T13:35:14;1.48;;;0.40;;
76761;SDS011;65705;51.032;13.790;2023-01-09T13:37:40;1.70;;;0.30;;
76761;SDS011;65705;51.032;13.790;2023-01-09T13:43:00;1.88;;;0.40;;
76761;SDS011;65705;51.032;13.790;2023-01-09T13:45:28;1.23;;;0.45;;
76761;SDS011;65705;51.032;13.790;2023-01-09T13:50:42;1.38;;;0.40;;
76761;SDS011;65705;51.032;13.790;2023-01-09T13:56:02;1.30;;;0.50;;
76761;SDS011;65705;51.032;13.790;2023-01-09T14:09:51;2.65;;;1.10;;
76761;SDS011;65705;51.032;13.790;2023-01-09T14:12:21;4.07;;;1.27;;
76761;SDS011;65705;51.032;13.790;2023-01-09T14:14:48;1.92;;;0.70;;
76761;SDS011;65705;51.032;13.790;2023-01-09T14:17:16;1.75;;;0.73;;
76761;SDS011;65705;51.032;13.790;2023-01-09T14:19:52;2.03;;;0.25;;
76761;SDS011;65705;51.032;13.790;2023-01-09T14:22:31;0.70;;;0.40;;
76761;SDS011;65705;51.032;13.790;2023-01-09T14:25:09;1.70;;;0.60;;
76761;SDS011;65705;51.032;13.790;2023-01-09T14:30:37;0.95;;;0.50;;
76761;SDS011;65705;51.032;13.790;2023-01-09T14:39:01;3.35;;;0.50;;
76761;SDS011;65705;51.032;13.790;2023-01-09T14:41:43;1.45;;;0.60;;
76761;SDS011;65705;51.032;13.790;2023-01-09T14:44:31;1.88;;;0.60;;
76761;SDS011;65705;51.032;13.790;2023-01-09T14:47:13;2.45;;;0.60;;
76761;SDS011;65705;51.032;13.790;2023-01-09T14:49:49;2.75;;;0.70;;
76761;SDS011;65705;51.032;13.790;2023-01-09T14:54:54;2.65;;;1.00;;
76761;SDS011;65705;51.032;13.790;2023-01-09T15:00:01;3.20;;;0.88;;
76761;SDS011;65705;51.032;13.790;2023-01-09T15:02:29;7.68;;;3.15;;
76761;SDS011;65705;51.032;13.790;2023-01-09T15:04:59;8.07;;;3.90;;
76761;SDS011;65705;51.032;13.790;2023-01-09T15:07:30;9.07;;;3.83;;
76761;SDS011;65705;51.032;13.790;2023-01-09T15:10:04;3.25;;;0.77;;
76761;SDS011;65705;51.032;13.790;2023-01-09T15:12:31;3.67;;;0.93;;
76761;SDS011;65705;51.032;13.790;2023-01-09T15:14:58;2.05;;;0.85;;
76761;SDS011;65705;51.032;13.790;2023-01-09T15:17:31;1.95;;;0.50;;
76761;SDS011;65705;51.032;13.790;2023-01-09T15:20:04;2.58;;;0.55;;
76761;SDS011;65705;51.032;13.790;2023-01-09T15:22:49;1.17;;;0.60;;
76761;SDS011;65705;51.032;13.790;2023-01-09T15:27:45;2.67;;;0.70;;
76761;SDS011;65705;51.032;13.790;2023-01-09T15:30:19;2.17;;;0.70;;
76761;SDS011;65705;51.032;13.790;2023-01-09T15:32:48;2.42;;;0.80;;
76761;SDS011;65705;51.032;13.790;2023-01-09T15:35:16;3.75;;;1.10;;
76761;SDS011;65705;51.032;13.790;2023-01-09T15:37:42;2.60;;;0.68;;
76761;SDS011;65705;51.032;13.790;2023-01-09T15:40:16;2.47;;;0.80;;
76761;SDS011;65705;51.032;13.790;2023-01-09T15:42:46;3.80;;;1.08;;
76761;SDS011;65705;51.032;13.790;2023-01-09T15:51:10;11.77;;;5.72;;
76761;SDS011;65705;51.032;13.790;2023-01-09T15:53:39;10.20;;;4.78;;
76761;SDS011;65705;51.032;13.790;2023-01-09T15:56:22;6.47;;;1.77;;
76761;SDS011;65705;51.032;13.790;2023-01-09T15:58:58;3.25;;;1.10;;
76761;SDS011;65705;51.032;13.790;2023-01-09T16:06:30;1.58;;;0.80;;
76761;SDS011;65705;51.032;13.790;2023-01-09T16:08:58;2.22;;;0.90;;
76761;SDS011;65705;51.032;13.790;2023-01-09T16:11:26;2.08;;;0.80;;
76761;SDS011;65705;51.032;13.790;2023-01-09T16:13:54;4.22;;;1.73;;
76761;SDS011;65705;51.032;13.790;2023-01-09T16:16:30;2.00;;;0.70;;
76761;SDS011;65705;51.032;13.790;2023-01-09T16:18:58;3.13;;;0.63;;
76761;SDS011;65705;51.032;13.790;2023-01-09T16:21:33;4.35;;;0.90;;
76761;SDS011;65705;51.032;13.790;2023-01-09T16:24:01;1.90;;;0.80;;
76761;SDS011;65705;51.032;13.790;2023-01-09T16:26:50;3.55;;;1.00;;
76761;SDS011;65705;51.032;13.790;2023-01-09T16:29:36;4.28;;;0.93;;
76761;SDS011;65705;51.032;13.790;2023-01-09T16:32:13;5.47;;;1.95;;
76761;SDS011;65705;51.032;13.790;2023-01-09T16:34:43;14.35;;;6.13;;
76761;SDS011;65705;51.032;13.790;2023-01-09T16:37:12;31.65;;;15.15;;
76761;SDS011;65705;51.032;13.790;2023-01-09T16:39:38;7.25;;;3.35;;
76761;SDS011;65705;51.032;13.790;2023-01-09T16:42:07;5.38;;;1.70;;
76761;SDS011;65705;51.032;13.790;2023-01-09T16:44:52;2.17;;;1.02;;
76761;SDS011;65705;51.032;13.790;2023-01-09T16:47:17;4.65;;;1.20;;
76761;SDS011;65705;51.032;13.790;2023-01-09T16:49:46;3.10;;;1.40;;
76761;SDS011;65705;51.032;13.790;2023-01-09T16:52:15;4.15;;;1.63;;
76761;SDS011;65705;51.032;13.790;2023-01-09T16:54:41;7.15;;;3.03;;
76761;SDS011;65705;51.032;13.790;2023-01-09T16:57:13;8.55;;;1.52;;
76761;SDS011;65705;51.032;13.790;2023-01-09T16:59:42;4.40;;;1.65;;
76761;SDS011;65705;51.032;13.790;2023-01-09T17:02:13;23.17;;;11.75;;
76761;SDS011;65705;51.032;13.790;2023-01-09T17:04:43;60.38;;;31.52;;
76761;SDS011;65705;51.032;13.790;2023-01-09T17:07:14;24.88;;;13.20;;
76761;SDS011;65705;51.032;13.790;2023-01-09T17:09:41;12.95;;;6.40;;
76761;SDS011;65705;51.032;13.790;2023-01-09T17:12:14;6.60;;;3.08;;